| time (UTC) | temp C | wind direction | speed KPH | gust KPH | rain 1hr cm | rain 24hr cm | rain mn cm | humidity % | barometer mb |
| 20260506114529 | -17 | 0.0 | 0.0 | 0.00 | 0.00 | 0.00 | 1015.9 | ||
| 20260506113014 | -17 | 0.0 | 0.0 | 0.00 | 0.00 | 0.00 | 1015.5 | ||
| 20260506111515 | -17 | 325 | 8.0 | 9.7 | 0.00 | 0.00 | 0.00 | 1015.3 | |
| 20260506110020 | 1 | 321 | 6.4 | 9.7 | 0.00 | 0.00 | 0.00 | 71 | 1015.2 |
| 20260506104516 | 1 | 319 | 4.8 | 8.0 | 0.00 | 0.00 | 0.00 | 71 | 1015.3 |
| 20260506103016 | 1 | 324 | 4.8 | 8.0 | 0.00 | 0.00 | 0.00 | 72 | 1015.2 |
| 20260506101519 | 1 | 306 | 3.2 | 9.7 | 0.00 | 0.00 | 0.00 | 71 | 1015.3 |
| 20260506100024 | 2 | 297 | 3.2 | 9.7 | 0.00 | 0.00 | 0.00 | 69 | 1014.9 |
| 20260506094519 | 2 | 336 | 8.0 | 9.7 | 0.00 | 0.00 | 0.00 | 68 | 1014.7 |
| 20260506093019 | 2 | 330 | 8.0 | 11.3 | 0.00 | 0.00 | 0.00 | 67 | 1014.6 |
| 20260506091522 | 2 | 339 | 4.8 | 11.3 | 0.00 | 0.00 | 0.00 | 68 | 1014.6 |
| 20260506090021 | 2 | 329 | 6.4 | 11.3 | 0.00 | 0.00 | 0.00 | 67 | 1014.6 |
| 20260506084523 | 3 | 340 | 9.7 | 16.1 | 0.00 | 0.00 | 0.00 | 66 | 1014.6 |
| 20260506083021 | 2 | 330 | 9.7 | 12.9 | 0.00 | 0.00 | 0.00 | 66 | 1014.4 |
| 20260506081523 | 2 | 293 | 4.8 | 8.0 | 0.00 | 0.00 | 0.00 | 66 | 1014.5 |
| 20260506073025 | 2 | 292 | 3.2 | 6.4 | 0.00 | 0.00 | 0.00 | 68 | 1014.0 |
| 20260506071524 | 3 | 290 | 4.8 | 8.0 | 0.00 | 0.00 | 0.00 | 65 | 1013.7 |
| 20260506061519 | 3 | 304 | 4.8 | 6.4 | 0.00 | 0.00 | 0.00 | 61 | 1013.9 |
| 20260506044515 | 5 | 316 | 3.2 | 6.4 | 0.00 | 0.00 | 0.00 | 55 | 1013.2 |
| 20260506043007 | 5 | 306 | 1.6 | 3.2 | 0.00 | 0.00 | 0.00 | 54 | 1013.3 |
| 20260506041506 | 5 | 292 | 1.6 | 4.8 | 0.00 | 0.00 | 0.00 | 56 | 1013.4 |
| 20260506040004 | 6 | 318 | 0.0 | 3.2 | 0.00 | 0.00 | 0.00 | 49 | 1013.3 |
| 20260506034503 | 6 | 300 | 1.6 | 3.2 | 0.00 | 0.00 | 0.00 | 50 | 1013.3 |
| 20260506033002 | 6 | 300 | 1.6 | 3.2 | 0.00 | 0.00 | 0.00 | 48 | 1013.2 |
| 20260506031605 | 6 | 310 | 3.2 | 4.8 | 0.00 | 0.00 | 0.00 | 48 | 1013.2 |
| 20260506030125 | 6 | 303 | 4.8 | 8.0 | 0.00 | 0.00 | 0.00 | 47 | 1013.2 |
| 20260506024602 | 7 | 305 | 4.8 | 8.0 | 0.00 | 0.00 | 0.00 | 47 | 1013.2 |
| 20260506023059 | 7 | 327 | 8.0 | 12.9 | 0.00 | 0.00 | 0.00 | 46 | 1013.1 |
| 20260506021600 | 7 | 319 | 9.7 | 14.5 | 0.00 | 0.00 | 0.00 | 46 | 1012.8 |
| 20260506020053 | 7 | 324 | 8.0 | 11.3 | 0.00 | 0.00 | 0.00 | 45 | 1012.6 |
| 20260506014558 | 7 | 318 | 8.0 | 11.3 | 0.00 | 0.00 | 0.00 | 45 | 1012.3 |
| 20260506013051 | 7 | 341 | 8.0 | 11.3 | 0.00 | 0.00 | 0.00 | 45 | 1012.1 |
| 20260506011544 | 8 | 328 | 9.7 | 14.5 | 0.00 | 0.00 | 0.00 | 43 | 1012.1 |
| 20260506010051 | 8 | 325 | 11.3 | 16.1 | 0.00 | 0.00 | 0.00 | 42 | 1012.0 |
| 20260506004549 | 8 | 328 | 12.9 | 19.3 | 0.00 | 0.00 | 0.00 | 41 | 1011.8 |
| 20260506003042 | 8 | 321 | 8.0 | 16.1 | 0.00 | 0.00 | 0.00 | 42 | 1011.7 |
| 20260506001538 | 8 | 330 | 14.5 | 22.5 | 0.00 | 0.00 | 0.00 | 41 | 1011.5 |
| 20260506000033 | 9 | 313 | 22.5 | 33.8 | 0.00 | 0.00 | 0.00 | 39 | 1011.5 |
| 20260505234533 | 9 | 308 | 16.1 | 30.6 | 0.00 | 0.00 | 0.00 | 40 | 1011.4 |
| 20260505233027 | 9 | 320 | 14.5 | 25.7 | 0.00 | 0.00 | 0.00 | 41 | 1011.4 |
| 20260505231527 | 9 | 283 | 12.9 | 22.5 | 0.00 | 0.00 | 0.00 | 40 | 1011.4 |
| 20260505230028 | 9 | 288 | 16.1 | 24.1 | 0.00 | 0.00 | 0.00 | 39 | 1011.4 |
| 20260505224522 | 10 | 307 | 12.9 | 30.6 | 0.00 | 0.00 | 0.00 | 39 | 1011.5 |
| 20260505223017 | 10 | 297 | 16.1 | 25.7 | 0.00 | 0.00 | 0.00 | 39 | 1011.5 |
| 20260505221519 | 10 | 290 | 11.3 | 29.0 | 0.00 | 0.00 | 0.00 | 38 | 1011.2 |
| 20260505220010 | 10 | 271 | 14.5 | 33.8 | 0.00 | 0.00 | 0.00 | 38 | 1011.3 |
| 20260505214508 | 10 | 286 | 16.1 | 41.8 | 0.00 | 0.00 | 0.00 | 38 | 1011.1 |
| 20260505213008 | 11 | 285 | 14.5 | 29.0 | 0.00 | 0.00 | 0.00 | 39 | 1011.3 |
| 20260505211504 | 10 | 298 | 11.3 | 25.7 | 0.00 | 0.00 | 0.00 | 39 | 1011.3 |